Hampstead, United Kingdom
Current Conditions -  °F | °C
As of 1:50 PM on Monday 20 Oct 2014 (Local Time) from EGWU Reporting Station
Broken Clouds Broken Clouds  
Wind Chill: 61°   Ceiling: 5000
Heat Index: 61°   Visibility: 6mi
Dew Point: 48°   Wind: 15mph
Humidity: 63%   Direction: 250°WSW
Pressure: 29.97"   Gusts: NA
Location:  51.56°N, 0.18°W
Report Text: EGWU 201250Z 25013KT 9999 FEW025 BKN050 16/09 Q1015 BLU NOSIG
Loading
Personal Weather Stations






























Interactive Weather Map
Tropical Storm Tracking
New forecast layout! Learn more

10-Day Weather Forecast

Advertisements
Track Severe Weather on mobile